createdAt,value
2019-05-06T00:00:29.977Z,71.50
2019-05-06T00:03:00.637Z,71.20
2019-05-06T00:05:31.131Z,70.60
2019-05-06T00:08:00.862Z,70.30
2019-05-06T00:10:35.867Z,70.40
2019-05-06T00:13:05.492Z,70.50
2019-05-06T00:15:36.718Z,70.20
2019-05-06T00:18:06.148Z,70.30
2019-05-06T00:20:36.309Z,70.40
2019-05-06T00:23:07.678Z,70.50
2019-05-06T00:25:58.697Z,70.50
2019-05-06T00:28:33.957Z,70.10
2019-05-06T00:31:16.515Z,71.00
2019-05-06T00:33:45.557Z,71.30
2019-05-06T00:36:15.323Z,71.20
2019-05-06T00:38:46.903Z,70.30
2019-05-06T00:41:21.947Z,71.10
2019-05-06T00:43:51.479Z,71.00
2019-05-06T00:46:20.923Z,71.10
2019-05-06T00:48:51.669Z,69.90
2019-05-06T00:51:21.397Z,69.80
2019-05-06T00:53:58.099Z,69.60
2019-05-06T00:56:28.137Z,70.10
2019-05-06T00:58:57.681Z,70.60
2019-05-06T01:01:29.776Z,70.40
2019-05-06T01:03:58.952Z,70.50
2019-05-06T01:06:28.398Z,70.30
2019-05-06T01:08:57.929Z,69.10
2019-05-06T01:11:27.667Z,68.80
2019-05-06T01:13:59.406Z,69.10
2019-05-06T01:16:29.350Z,69.20
2019-05-06T01:18:59.266Z,69.30
2019-05-06T01:21:29.604Z,69.90
2019-05-06T01:23:59.630Z,69.70
2019-05-06T01:26:29.447Z,69.20
2019-05-06T01:29:00.107Z,69.90
2019-05-06T01:31:42.349Z,69.10
2019-05-06T01:34:04.098Z,68.90
2019-05-06T01:36:34.392Z,70.30
2019-05-06T01:39:14.311Z,70.10
2019-05-06T01:41:45.692Z,69.10
2019-05-06T01:44:15.321Z,69.10
2019-05-06T01:46:45.148Z,69.30
2019-05-06T01:49:14.596Z,69.60
2019-05-06T01:51:44.462Z,69.10
2019-05-06T01:54:14.958Z,68.50
2019-05-06T01:56:45.399Z,68.80
2019-05-06T01:59:15.667Z,68.40
2019-05-06T02:01:56.917Z,68.20
2019-05-06T02:04:16.911Z,68.70
2019-05-06T02:06:46.558Z,68.60
2019-05-06T02:09:17.614Z,68.60
2019-05-06T02:11:48.759Z,68.80
2019-05-06T02:14:18.586Z,68.30
2019-05-06T02:16:48.541Z,68.60
2019-05-06T02:19:18.514Z,68.80
2019-05-06T02:21:54.228Z,69.20
2019-05-06T02:24:29.648Z,69.60
2019-05-06T02:26:59.510Z,69.10
2019-05-06T02:29:30.574Z,69.10
2019-05-06T02:32:17.129Z,69.20
2019-05-06T02:34:49.857Z,69.20
2019-05-06T02:37:26.811Z,69.10
2019-05-06T02:39:57.084Z,68.60
2019-05-06T02:42:27.205Z,68.60
2019-05-06T02:44:57.765Z,69.10
2019-05-06T02:47:38.004Z,68.80
2019-05-06T02:50:09.703Z,69.10
2019-05-06T02:52:40.162Z,69.10
2019-05-06T02:55:12.757Z,69.00
2019-05-06T02:57:43.952Z,68.90
2019-05-06T03:00:17.501Z,69.00
2019-05-06T03:02:48.509Z,68.80
2019-05-06T03:05:18.554Z,68.40
2019-05-06T03:07:48.469Z,68.70
2019-05-06T03:10:18.285Z,68.60
2019-05-06T03:12:47.821Z,68.50
2019-05-06T03:15:17.566Z,68.70
2019-05-06T03:17:47.335Z,68.90
2019-05-06T03:20:35.943Z,68.70
2019-05-06T03:23:06.970Z,68.80
2019-05-06T03:25:38.359Z,68.60
2019-05-06T03:28:08.380Z,68.70
2019-05-06T03:30:38.135Z,69.70
2019-05-06T03:33:37.100Z,68.50
2019-05-06T03:35:52.276Z,68.70
2019-05-06T03:38:13.745Z,68.70
2019-05-06T03:40:45.879Z,68.90
2019-05-06T03:43:16.095Z,68.90
2019-05-06T03:45:50.035Z,68.40
2019-05-06T03:48:33.065Z,68.70
2019-05-06T03:51:04.064Z,68.20
2019-05-06T03:53:35.522Z,68.50
2019-05-06T03:56:06.265Z,68.60
2019-05-06T03:58:37.766Z,68.60
2019-05-06T04:01:07.870Z,68.40
2019-05-06T04:03:46.975Z,68.70
2019-05-06T04:06:09.369Z,68.60
2019-05-06T04:08:38.878Z,68.50
2019-05-06T04:11:13.591Z,68.60
2019-05-06T04:13:46.712Z,68.50
2019-05-06T04:16:18.270Z,68.70
2019-05-06T04:18:53.489Z,68.90
2019-05-06T04:21:27.136Z,69.10
2019-05-06T04:24:06.920Z,68.90
2019-05-06T04:26:46.004Z,68.80
2019-05-06T04:29:13.337Z,68.70
2019-05-06T04:31:43.644Z,69.30
2019-05-06T04:34:19.346Z,69.60
2019-05-06T04:36:46.422Z,69.80
2019-05-06T04:39:16.699Z,69.80
2019-05-06T04:41:46.420Z,69.60
2019-05-06T04:44:16.335Z,69.90
2019-05-06T04:46:46.153Z,69.80
2019-05-06T04:49:17.058Z,69.80
2019-05-06T04:51:46.721Z,70.00
2019-05-06T04:54:17.186Z,69.90
2019-05-06T04:56:47.167Z,69.70
2019-05-06T04:59:17.028Z,69.70
2019-05-06T05:01:46.769Z,68.90
2019-05-06T05:04:28.176Z,68.90
2019-05-06T05:06:47.974Z,69.20
2019-05-06T05:09:17.869Z,68.80
2019-05-06T05:11:52.978Z,68.10
2019-05-06T05:14:25.799Z,68.10
2019-05-06T05:16:56.476Z,68.80
2019-05-06T05:19:27.173Z,67.60
2019-05-06T05:21:58.467Z,67.80
2019-05-06T05:24:28.750Z,67.80
2019-05-06T05:26:58.818Z,68.30
2019-05-06T05:29:28.583Z,68.50
2019-05-06T05:31:58.463Z,68.30
2019-05-06T05:34:37.970Z,68.10
2019-05-06T05:36:59.342Z,67.50
2019-05-06T05:39:29.103Z,67.50
2019-05-06T05:42:00.495Z,67.70
2019-05-06T05:44:32.372Z,67.90
2019-05-06T05:47:03.396Z,67.70
2019-05-06T05:49:37.537Z,67.60
2019-05-06T05:52:08.062Z,67.60
2019-05-06T05:54:38.177Z,67.50
2019-05-06T05:57:07.847Z,67.80
2019-05-06T05:59:37.557Z,67.50
2019-05-06T06:02:07.362Z,67.80
2019-05-06T06:04:50.708Z,67.80
2019-05-06T06:07:08.554Z,67.70
2019-05-06T06:09:41.822Z,67.90
2019-05-06T06:12:12.074Z,68.00
2019-05-06T06:14:45.541Z,67.90
2019-05-06T06:17:25.182Z,67.00
2019-05-06T06:19:56.565Z,66.50
2019-05-06T06:22:28.208Z,65.50
2019-05-06T06:24:58.049Z,65.60
2019-05-06T06:27:29.400Z,65.10
2019-05-06T06:30:02.208Z,65.10
2019-05-06T06:32:32.566Z,64.90
2019-05-06T06:35:12.078Z,64.90
2019-05-06T06:37:52.344Z,65.10
2019-05-06T06:40:23.326Z,64.80
2019-05-06T06:42:54.511Z,64.80
2019-05-06T06:45:27.136Z,64.20
2019-05-06T06:47:57.094Z,65.00
2019-05-06T06:50:27.028Z,64.20
2019-05-06T06:52:56.782Z,64.30
2019-05-06T06:55:27.183Z,64.00
2019-05-06T06:58:05.827Z,64.40
2019-05-06T07:00:39.800Z,64.00
2019-05-06T07:03:16.829Z,64.80
2019-05-06T07:05:53.639Z,64.70
2019-05-06T07:08:33.915Z,63.70
2019-05-06T07:10:55.918Z,63.90
2019-05-06T07:13:26.889Z,63.60
2019-05-06T07:15:56.516Z,63.50
2019-05-06T07:18:26.220Z,62.70
2019-05-06T07:21:05.567Z,63.10
2019-05-06T07:23:36.942Z,62.60
2019-05-06T07:26:08.282Z,63.00
2019-05-06T07:28:37.859Z,63.20
2019-05-06T07:31:20.813Z,62.60
2019-05-06T07:33:39.017Z,62.70
2019-05-06T07:36:08.793Z,62.40
2019-05-06T07:38:42.733Z,63.30
2019-05-06T07:41:16.678Z,63.40
2019-05-06T07:44:04.417Z,63.70
2019-05-06T07:46:52.495Z,61.50
2019-05-06T07:49:23.536Z,61.30
2019-05-06T07:51:54.901Z,61.30
2019-05-06T07:54:25.524Z,63.20
2019-05-06T07:56:55.134Z,62.80
2019-05-06T07:59:25.081Z,61.90
2019-05-06T08:01:54.736Z,59.70
2019-05-06T08:04:24.448Z,60.20
2019-05-06T08:06:54.174Z,59.70
2019-05-06T08:09:23.686Z,60.00
2019-05-06T08:11:53.339Z,60.70
2019-05-06T08:14:24.787Z,58.80
2019-05-06T08:17:05.099Z,58.50
2019-05-06T08:19:34.795Z,59.50
2019-05-06T08:22:18.227Z,58.60
2019-05-06T08:24:48.118Z,58.80
2019-05-06T08:27:18.187Z,57.70
2019-05-06T08:29:48.600Z,57.70
2019-05-06T08:32:18.100Z,57.10
2019-05-06T08:34:47.798Z,58.50
2019-05-06T08:37:28.043Z,56.00
2019-05-06T08:39:57.778Z,54.40
2019-05-06T08:42:27.727Z,55.10
2019-05-06T08:44:57.452Z,55.30
2019-05-06T08:47:27.196Z,53.20
2019-05-06T08:50:05.438Z,54.90
2019-05-06T08:52:56.178Z,55.10
2019-05-06T08:55:36.364Z,57.80
2019-05-06T08:58:06.365Z,53.60
2019-05-06T09:00:42.784Z,52.60
2019-05-06T09:03:14.264Z,53.00
2019-05-06T09:05:44.849Z,51.70
2019-05-06T09:08:14.284Z,52.70
2019-05-06T09:10:43.718Z,54.50
2019-05-06T09:13:13.950Z,52.10
2019-05-06T09:15:43.702Z,50.70
2019-05-06T09:18:13.434Z,51.20
2019-05-06T09:20:43.271Z,52.50
2019-05-06T09:23:14.140Z,52.00
2019-05-06T09:25:43.988Z,51.90
2019-05-06T09:28:33.905Z,52.30
2019-05-06T09:31:22.956Z,52.60
2019-05-06T09:34:13.057Z,53.40
2019-05-06T09:36:51.429Z,51.80
2019-05-06T09:39:13.791Z,51.00
2019-05-06T09:41:46.553Z,51.60
2019-05-06T09:44:15.047Z,50.60
2019-05-06T09:46:44.581Z,51.60
2019-05-06T09:49:18.936Z,51.00
2019-05-06T09:51:48.672Z,52.10
2019-05-06T09:54:23.598Z,50.10
2019-05-06T09:56:55.360Z,50.60
2019-05-06T09:59:25.102Z,48.30
2019-05-06T10:01:54.937Z,49.20
2019-05-06T10:04:24.576Z,47.20
2019-05-06T10:06:57.195Z,47.80
2019-05-06T10:09:26.117Z,46.60
2019-05-06T10:11:57.499Z,49.10
2019-05-06T10:14:28.901Z,47.10
2019-05-06T10:16:58.723Z,46.30
2019-05-06T10:19:28.763Z,47.40
2019-05-06T10:21:58.489Z,50.10
2019-05-06T10:24:28.936Z,46.80
2019-05-06T10:26:59.329Z,48.00
2019-05-06T10:29:39.547Z,48.30
2019-05-06T10:32:12.082Z,47.70
2019-05-06T10:34:43.517Z,43.10
2019-05-06T10:37:28.691Z,41.90
2019-05-06T10:40:19.237Z,41.40
2019-05-06T10:43:12.377Z,40.80
2019-05-06T10:45:42.679Z,42.30
2019-05-06T10:48:12.907Z,44.00
2019-05-06T10:50:47.164Z,44.10
2019-05-06T10:53:19.962Z,44.70
2019-05-06T10:55:53.761Z,43.90
2019-05-06T10:58:24.316Z,46.20
2019-05-06T11:00:56.004Z,44.80
2019-05-06T11:03:27.699Z,45.30
2019-05-06T11:05:58.331Z,46.60
2019-05-06T11:08:28.024Z,45.30
2019-05-06T11:11:11.563Z,47.00
2019-05-06T11:13:29.494Z,42.60
2019-05-06T11:15:59.244Z,51.70
2019-05-06T11:18:29.920Z,60.50
2019-05-06T11:20:59.662Z,67.00
2019-05-06T11:23:30.003Z,66.40
2019-05-06T11:25:59.678Z,66.80
2019-05-06T11:28:42.972Z,68.70
2019-05-06T11:31:23.431Z,67.00
2019-05-06T11:34:03.805Z,67.80
2019-05-06T11:36:54.488Z,66.60
2019-05-06T11:39:24.089Z,69.00
2019-05-06T11:42:14.984Z,64.90
2019-05-06T11:44:25.191Z,65.70
2019-05-06T11:46:54.817Z,64.40
2019-05-06T11:49:24.240Z,65.50
2019-05-06T11:51:54.110Z,64.90
2019-05-06T11:54:24.639Z,63.60
2019-05-06T11:56:58.273Z,62.20
2019-05-06T11:59:26.537Z,63.80
2019-05-06T12:01:58.089Z,62.40
2019-05-06T12:04:27.731Z,61.50
2019-05-06T12:07:10.203Z,60.60
2019-05-06T12:09:32.814Z,59.50
2019-05-06T12:12:03.326Z,57.60
2019-05-06T12:14:33.319Z,60.40
2019-05-06T12:17:02.869Z,60.10
2019-05-06T12:19:32.555Z,62.30
2019-05-06T12:22:02.538Z,62.60
2019-05-06T12:24:31.915Z,65.10
2019-05-06T12:27:03.304Z,65.10
2019-05-06T12:29:33.471Z,65.10
2019-05-06T12:32:05.045Z,62.30
2019-05-06T12:34:34.735Z,63.70
2019-05-06T12:37:06.323Z,63.80
2019-05-06T12:39:35.984Z,61.60
2019-05-06T12:42:10.469Z,60.60
2019-05-06T12:44:40.962Z,60.70
2019-05-06T12:47:21.351Z,62.10
2019-05-06T12:49:53.134Z,61.70
2019-05-06T12:52:23.076Z,60.10
2019-05-06T12:54:54.345Z,61.80
2019-05-06T12:57:24.616Z,63.70
2019-05-06T12:59:54.727Z,60.70
2019-05-06T13:02:24.176Z,61.40
2019-05-06T13:05:00.237Z,61.30
2019-05-06T13:07:36.345Z,61.10
2019-05-06T13:10:09.253Z,60.90
2019-05-06T13:12:42.387Z,60.00
2019-05-06T13:15:13.381Z,60.50
2019-05-06T13:17:44.016Z,61.50
2019-05-06T13:20:14.857Z,61.90
2019-05-06T13:22:53.109Z,64.40
2019-05-06T13:25:23.409Z,62.10
2019-05-06T13:27:53.056Z,61.20
2019-05-06T13:30:23.206Z,59.60
2019-05-06T13:32:54.371Z,61.30
2019-05-06T13:35:24.006Z,53.50
2019-05-06T13:37:53.822Z,46.90
2019-05-06T13:40:26.732Z,52.20
2019-05-06T13:43:13.099Z,53.80
2019-05-06T13:45:48.234Z,55.90
2019-05-06T13:48:32.433Z,47.60
2019-05-06T13:51:20.240Z,46.80
2019-05-06T13:53:50.197Z,43.60
2019-05-06T13:56:20.157Z,45.10
2019-05-06T13:58:52.435Z,46.60
2019-05-06T14:01:23.300Z,47.40
2019-05-06T14:03:53.084Z,47.50
2019-05-06T14:06:22.823Z,43.00
2019-05-06T14:08:52.947Z,39.50
2019-05-06T14:11:23.420Z,39.90
2019-05-06T14:13:53.031Z,41.40
2019-05-06T14:16:24.764Z,44.50
2019-05-06T14:18:54.755Z,39.60
2019-05-06T14:21:24.533Z,43.00
2019-05-06T14:23:54.671Z,45.40
2019-05-06T14:26:35.007Z,46.80
2019-05-06T14:29:09.725Z,41.00
2019-05-06T14:31:43.753Z,41.90
2019-05-06T14:34:14.379Z,41.90
2019-05-06T14:36:44.472Z,43.30
2019-05-06T14:39:15.936Z,43.50
2019-05-06T14:41:47.258Z,43.90
2019-05-06T14:44:17.257Z,38.60
2019-05-06T14:46:51.801Z,40.40
2019-05-06T14:49:22.438Z,39.30
2019-05-06T14:51:53.651Z,40.80
2019-05-06T14:54:24.326Z,38.50
2019-05-06T14:56:56.233Z,39.60
2019-05-06T14:59:26.171Z,40.60
2019-05-06T15:01:55.929Z,39.50
2019-05-06T15:04:25.622Z,37.70
2019-05-06T15:06:55.731Z,35.70
2019-05-06T15:09:25.845Z,35.10
2019-05-06T15:11:55.557Z,34.60
2019-05-06T15:14:25.276Z,33.50
2019-05-06T15:16:55.989Z,33.10
2019-05-06T15:19:26.009Z,32.90
2019-05-06T15:21:56.047Z,32.40
2019-05-06T15:24:26.749Z,30.90
2019-05-06T15:26:56.681Z,31.50
2019-05-06T15:29:27.448Z,30.70
2019-05-06T15:32:02.723Z,32.10
2019-05-06T15:34:43.447Z,30.00
2019-05-06T15:37:29.810Z,31.30
2019-05-06T15:39:59.488Z,29.10
2019-05-06T15:42:29.322Z,28.60
2019-05-06T15:44:59.240Z,34.30
2019-05-06T15:47:29.342Z,31.30
2019-05-06T15:50:00.047Z,29.50
2019-05-06T15:52:32.773Z,36.30
2019-05-06T15:55:03.427Z,33.30
2019-05-06T15:57:33.349Z,29.90
2019-05-06T16:00:04.483Z,29.20
2019-05-06T16:02:34.493Z,29.40
2019-05-06T16:05:13.920Z,32.50
2019-05-06T16:07:37.532Z,31.40
2019-05-06T16:10:08.700Z,31.20
2019-05-06T16:12:38.259Z,29.60
2019-05-06T16:15:08.681Z,31.20
2019-05-06T16:17:38.760Z,32.30
2019-05-06T16:20:08.602Z,30.90
2019-05-06T16:22:38.526Z,31.60
2019-05-06T16:25:09.988Z,32.50
2019-05-06T16:27:43.908Z,34.30
2019-05-06T16:30:13.192Z,31.00
2019-05-06T16:32:44.048Z,31.60
2019-05-06T16:35:14.318Z,32.40
2019-05-06T16:37:44.404Z,33.90
2019-05-06T16:40:16.069Z,31.70
2019-05-06T16:42:46.889Z,32.40
2019-05-06T16:45:18.841Z,31.30
2019-05-06T16:47:48.573Z,32.20
2019-05-06T16:50:19.443Z,31.80
2019-05-06T16:52:49.410Z,34.60
2019-05-06T16:55:24.282Z,34.00
2019-05-06T16:57:59.134Z,33.80
2019-05-06T17:00:32.071Z,33.10
2019-05-06T17:03:14.579Z,33.70
2019-05-06T17:06:02.168Z,33.10
2019-05-06T17:08:33.348Z,32.60
2019-05-06T17:11:04.801Z,34.40
2019-05-06T17:13:37.500Z,34.20
2019-05-06T17:16:07.683Z,33.10
2019-05-06T17:18:37.874Z,32.80
2019-05-06T17:21:07.616Z,34.30
2019-05-06T17:23:37.224Z,33.40
2019-05-06T17:26:07.101Z,35.00
2019-05-06T17:28:53.760Z,34.80
2019-05-06T17:31:28.399Z,33.70
2019-05-06T17:34:15.764Z,32.70
2019-05-06T17:36:46.267Z,33.60
2019-05-06T17:39:16.121Z,33.60
2019-05-06T17:41:48.959Z,34.30
2019-05-06T17:44:18.203Z,36.20
2019-05-06T17:46:55.506Z,35.80
2019-05-06T17:49:29.741Z,35.20
2019-05-06T17:52:16.888Z,36.90
2019-05-06T17:54:47.308Z,37.40
2019-05-06T17:57:17.052Z,35.50
2019-05-06T17:59:46.755Z,38.10
2019-05-06T18:02:19.259Z,38.10
2019-05-06T18:04:53.077Z,36.50
2019-05-06T18:07:22.395Z,38.00
2019-05-06T18:09:52.304Z,39.40
2019-05-06T18:12:23.208Z,38.10
2019-05-06T18:14:53.565Z,40.00
2019-05-06T18:17:23.509Z,40.20
2019-05-06T18:19:53.223Z,44.30
2019-05-06T18:22:23.777Z,47.00
2019-05-06T18:24:53.888Z,48.60
2019-05-06T18:27:23.318Z,50.00
2019-05-06T18:29:53.359Z,48.60
2019-05-06T18:32:23.503Z,50.80
2019-05-06T18:34:53.522Z,42.80
2019-05-06T18:37:23.477Z,41.50
2019-05-06T18:39:53.347Z,41.30
2019-05-06T18:42:23.780Z,42.10
2019-05-06T18:44:53.552Z,44.70
2019-05-06T18:47:23.001Z,44.10
2019-05-06T18:49:52.959Z,48.80
2019-05-06T18:52:23.101Z,46.80
2019-05-06T18:54:53.391Z,41.30
2019-05-06T18:57:23.160Z,40.00
2019-05-06T18:59:53.711Z,39.80
2019-05-06T19:02:23.372Z,40.90
2019-05-06T19:04:54.889Z,41.30
2019-05-06T19:07:24.886Z,40.70
2019-05-06T19:09:56.184Z,41.00
2019-05-06T19:12:31.854Z,39.80
2019-05-06T19:14:57.332Z,40.80
2019-05-06T19:17:27.718Z,41.40
2019-05-06T19:19:58.874Z,43.40
2019-05-06T19:22:28.416Z,46.50
2019-05-06T19:24:58.061Z,51.50
2019-05-06T19:27:27.587Z,53.50
2019-05-06T19:29:57.333Z,54.40
2019-05-06T19:32:27.022Z,56.40
2019-05-06T19:34:57.366Z,58.30
2019-05-06T19:37:27.041Z,59.50
2019-05-06T19:39:57.206Z,60.60
2019-05-06T19:42:27.097Z,61.20
2019-05-06T19:44:56.759Z,61.30
2019-05-06T19:47:26.491Z,62.60
2019-05-06T19:49:56.205Z,62.30
2019-05-06T19:52:25.928Z,64.00
2019-05-06T19:54:55.640Z,64.80
2019-05-06T19:57:25.766Z,65.30
2019-05-06T19:59:55.649Z,64.70
2019-05-06T20:02:25.935Z,65.00
2019-05-06T20:04:58.416Z,64.40
2019-05-06T20:07:32.568Z,64.10
2019-05-06T20:10:04.995Z,64.70
2019-05-06T20:12:58.432Z,65.00
2019-05-06T20:15:33.452Z,64.00
2019-05-06T20:18:03.930Z,64.00
2019-05-06T20:20:35.029Z,64.10
2019-05-06T20:23:05.498Z,64.10
2019-05-06T20:25:37.192Z,63.20
2019-05-06T20:28:07.883Z,65.00
2019-05-06T20:30:37.310Z,65.90
2019-05-06T20:33:07.562Z,65.20
2019-05-06T20:35:36.994Z,66.10
2019-05-06T20:38:07.163Z,67.30
2019-05-06T20:40:38.446Z,65.10
2019-05-06T20:43:19.345Z,66.30
2019-05-06T20:45:39.964Z,65.50
2019-05-06T20:48:09.865Z,66.10
2019-05-06T20:50:39.619Z,66.90
2019-05-06T20:53:09.523Z,65.60
2019-05-06T20:55:39.195Z,67.00
2019-05-06T20:58:09.127Z,66.20
2019-05-06T21:00:39.427Z,67.20
2019-05-06T21:03:09.187Z,67.50
2019-05-06T21:05:38.848Z,67.20
2019-05-06T21:08:08.978Z,66.70
2019-05-06T21:10:38.406Z,64.70
2019-05-06T21:13:08.008Z,63.60
2019-05-06T21:15:37.704Z,62.60
2019-05-06T21:18:07.394Z,61.80
2019-05-06T21:20:37.312Z,63.80
2019-05-06T21:23:08.472Z,64.40
2019-05-06T21:25:38.156Z,66.30
2019-05-06T21:28:08.905Z,66.70
2019-05-06T21:30:38.841Z,66.90
2019-05-06T21:33:08.926Z,67.40
2019-05-06T21:35:38.656Z,68.20
2019-05-06T21:38:08.502Z,69.00
2019-05-06T21:40:38.224Z,69.70
2019-05-06T21:43:07.772Z,70.00
2019-05-06T21:45:37.414Z,69.90
2019-05-06T21:48:06.859Z,70.40
2019-05-06T21:50:36.478Z,70.20
2019-05-06T21:53:05.946Z,70.70
2019-05-06T21:55:35.634Z,70.40
2019-05-06T21:58:05.191Z,70.70
2019-05-06T22:00:43.364Z,70.80
2019-05-06T22:03:13.646Z,71.50
2019-05-06T22:05:43.509Z,71.20
2019-05-06T22:08:13.411Z,68.50
2019-05-06T22:10:42.850Z,67.20
2019-05-06T22:13:14.607Z,67.80
2019-05-06T22:15:44.610Z,69.40
2019-05-06T22:18:15.919Z,69.60
2019-05-06T22:21:03.137Z,70.10
2019-05-06T22:23:49.633Z,70.40
2019-05-06T22:26:19.399Z,69.60
2019-05-06T22:28:48.836Z,68.00
2019-05-06T22:31:18.324Z,66.30
2019-05-06T22:33:48.264Z,62.50
2019-05-06T22:36:18.025Z,61.60
2019-05-06T22:38:47.775Z,62.80
2019-05-06T22:41:18.104Z,63.20
2019-05-06T22:43:47.848Z,64.70
2019-05-06T22:46:18.636Z,66.70
2019-05-06T22:48:48.288Z,67.90
2019-05-06T22:51:18.394Z,67.60
2019-05-06T22:53:47.953Z,63.80
2019-05-06T22:56:17.647Z,64.40
2019-05-06T22:58:47.333Z,63.60
2019-05-06T23:01:34.795Z,61.60
2019-05-06T23:04:05.344Z,62.80
2019-05-06T23:06:34.937Z,64.60
2019-05-06T23:09:08.918Z,66.00
2019-05-06T23:11:39.128Z,65.60
2019-05-06T23:14:12.255Z,65.90
2019-05-06T23:16:42.454Z,65.00
2019-05-06T23:19:12.682Z,65.20
2019-05-06T23:21:43.173Z,65.10
2019-05-06T23:24:13.545Z,65.00
2019-05-06T23:26:43.182Z,65.00
2019-05-06T23:29:13.113Z,65.10
2019-05-06T23:31:43.079Z,65.80
2019-05-06T23:34:12.788Z,65.70
2019-05-06T23:37:02.716Z,65.80
2019-05-06T23:40:16.219Z,67.10
2019-05-06T23:43:22.489Z,67.00
2019-05-06T23:46:09.045Z,68.70
2019-05-06T23:49:14.976Z,69.00
2019-05-06T23:52:22.724Z,67.60
2019-05-06T23:55:30.558Z,67.00
2019-05-06T23:58:00.142Z,67.10
